Time;durP1;ratioP1;P1;durP2;ratioP2;P2;SDS_P1;SDS_P2;PMS_P1;PMS_P2;Temp;Humidity;BMP_temperature;BMP_pressure;BME280_temperature;BME280_humidity;BME280_pressure;Samples;Min_cycle;Max_cycle;Signal;HPM_P1;HPM_P2
2023/09/11 00:02:09;;;;;;;0.50;0.50;;;20.60;99.90;;;;;;5114183;28;20410;-78
2023/09/11 00:04:35;;;;;;;0.60;0.60;;;20.60;99.90;;;;;;5113647;28;20059;-78
2023/09/11 00:07:01;;;;;;;0.40;0.40;;;20.50;99.90;;;;;;5114696;28;20046;-78
2023/09/11 00:09:27;;;;;;;0.40;0.40;;;20.50;99.90;;;;;;5114485;28;20494;-78
2023/09/11 00:11:53;;;;;;;0.40;0.40;;;20.50;99.90;;;;;;5113805;28;20043;-78
2023/09/11 00:14:18;;;;;;;1.13;0.50;;;20.50;99.90;;;;;;5113979;28;20047;-78
2023/09/11 00:16:44;;;;;;;0.50;0.50;;;20.40;99.90;;;;;;5113879;28;20039;-78
2023/09/11 00:19:11;;;;;;;0.50;0.50;;;20.40;99.90;;;;;;5113731;28;20107;-78
2023/09/11 00:21:37;;;;;;;0.50;0.47;;;20.40;99.90;;;;;;5113498;28;20039;-78
2023/09/11 00:24:03;;;;;;;0.40;0.40;;;20.40;99.90;;;;;;5113802;28;20032;-78
2023/09/11 00:26:29;;;;;;;;;;;20.30;99.90;;;;;;5114328;28;20044;-78
2023/09/11 00:28:55;;;;;;;7.50;0.55;;;20.30;99.90;;;;;;5113535;28;19923;-78
2023/09/11 00:31:20;;;;;;;0.73;0.67;;;20.30;99.90;;;;;;5113703;28;20041;-78
2023/09/11 00:33:46;;;;;;;0.90;0.50;;;20.30;99.90;;;;;;5113604;28;20045;-78
2023/09/11 00:36:11;;;;;;;0.40;0.40;;;20.30;99.90;;;;;;5113241;28;20050;-78
2023/09/11 00:38:37;;;;;;;0.50;0.50;;;20.30;99.90;;;;;;5113616;28;20459;-78
2023/09/11 00:41:03;;;;;;;0.60;0.60;;;20.30;99.90;;;;;;5113651;28;20035;-78
2023/09/11 00:43:28;;;;;;;0.40;0.40;;;20.30;99.90;;;;;;5113632;28;20122;-78
2023/09/11 00:45:56;;;;;;;0.87;0.60;;;20.30;99.90;;;;;;5113623;28;20051;-78
2023/09/11 00:48:22;;;;;;;0.57;0.57;;;20.20;99.90;;;;;;5113557;28;20118;-78
2023/09/11 00:50:48;;;;;;;0.55;0.55;;;20.20;99.90;;;;;;5113574;28;20040;-78
2023/09/11 00:53:14;;;;;;;0.47;0.47;;;20.20;99.90;;;;;;5114022;28;20412;-78
2023/09/11 00:55:44;;;;;;;0.57;0.57;;;20.20;99.90;;;;;;5114951;28;20493;-78
2023/09/11 00:58:10;;;;;;;1.40;0.50;;;20.20;99.90;;;;;;5117559;28;20097;-78
2023/09/11 01:00:35;;;;;;;0.45;0.40;;;20.10;99.90;;;;;;5117277;28;20082;-78
2023/09/11 01:03:01;;;;;;;0.50;0.50;;;20.20;99.90;;;;;;5117210;28;20088;-78
2023/09/11 01:05:29;;;;;;;0.80;0.80;;;20.20;99.90;;;;;;5117203;28;20036;-78
2023/09/11 01:07:55;;;;;;;1.10;0.68;;;20.10;99.90;;;;;;5116888;28;20039;-78
2023/09/11 01:10:21;;;;;;;0.77;0.65;;;20.20;99.90;;;;;;5117523;28;20044;-78
2023/09/11 01:12:46;;;;;;;0.50;0.50;;;20.10;99.90;;;;;;5117002;28;20505;-78
2023/09/11 01:15:12;;;;;;;0.40;0.40;;;20.10;99.90;;;;;;5117186;28;20043;-78
2023/09/11 01:17:50;;;;;;;1.30;0.97;;;20.10;99.90;;;;;;5116953;28;20035;-78
2023/09/11 01:20:30;;;;;;;1.15;0.77;;;20.10;99.90;;;;;;5116940;28;20043;-78
2023/09/11 01:23:31;;;;;;;0.57;0.57;;;20.10;99.90;;;;;;5117051;28;20046;-78
2023/09/11 01:26:03;;;;;;;0.35;0.35;;;20.10;99.90;;;;;;5116767;28;20331;-78
2023/09/11 01:29:05;;;;;;;0.93;0.63;;;20.10;99.90;;;;;;5116625;28;20363;-77
2023/09/11 01:31:32;;;;;;;2.40;1.00;;;20.10;99.90;;;;;;5116689;28;20038;-78
2023/09/11 01:34:05;;;;;;;2.40;1.02;;;20.00;99.90;;;;;;5116548;28;20148;-78
2023/09/11 01:36:31;;;;;;;0.30;0.30;;;20.00;99.90;;;;;;5116314;28;20093;-78
2023/09/11 01:38:57;;;;;;;1.00;0.90;;;20.00;99.90;;;;;;5116239;28;20043;-78
2023/09/11 01:41:31;;;;;;;0.45;0.43;;;20.00;99.90;;;;;;5116433;28;20035;-78
2023/09/11 01:44:02;;;;;;;0.55;0.55;;;20.00;99.90;;;;;;5116433;28;20036;-78
2023/09/11 01:46:29;;;;;;;3.25;0.60;;;20.00;99.90;;;;;;5116599;28;20047;-78
2023/09/11 01:48:57;;;;;;;0.47;0.47;;;20.00;99.90;;;;;;5116287;28;20039;-78
2023/09/11 01:51:24;;;;;;;0.50;0.50;;;19.90;99.90;;;;;;5115810;28;20043;-78
2023/09/11 01:53:50;;;;;;;0.63;0.60;;;19.90;99.90;;;;;;5116201;28;20050;-78
2023/09/11 01:56:16;;;;;;;;;;;19.90;99.90;;;;;;5116579;28;20072;-78
2023/09/11 01:58:43;;;;;;;0.65;0.60;;;19.90;99.90;;;;;;5116043;28;19915;-78
2023/09/11 02:01:09;;;;;;;0.45;0.40;;;19.90;99.90;;;;;;5116047;28;20049;-78
2023/09/11 02:03:35;;;;;;;0.70;0.50;;;19.90;99.90;;;;;;5115801;28;20122;-78
2023/09/11 02:06:00;;;;;;;0.83;0.60;;;19.90;99.90;;;;;;5115978;28;20142;-78
2023/09/11 02:08:26;;;;;;;0.67;0.60;;;19.90;99.90;;;;;;5114580;28;20547;-78
2023/09/11 02:10:53;;;;;;;0.73;0.63;;;19.90;99.90;;;;;;5116230;28;20046;-78
2023/09/11 02:13:19;;;;;;;0.40;0.40;;;19.90;99.90;;;;;;5115853;28;20040;-78
2023/09/11 02:15:45;;;;;;;0.57;0.57;;;19.80;99.90;;;;;;5115648;28;20075;-78
2023/09/11 02:18:11;;;;;;;0.97;0.87;;;19.80;99.90;;;;;;5115778;28;20078;-78
2023/09/11 02:20:36;;;;;;;0.37;0.30;;;19.80;99.90;;;;;;5115373;28;20097;-78
2023/09/11 02:23:02;;;;;;;2.80;0.90;;;19.80;99.90;;;;;;5115677;28;20031;-78
2023/09/11 02:25:28;;;;;;;1.43;0.70;;;19.80;99.90;;;;;;5115480;28;20036;-78
2023/09/11 02:27:53;;;;;;;0.40;0.40;;;19.80;99.90;;;;;;5115297;28;20046;-78
2023/09/11 02:30:19;;;;;;;0.60;0.60;;;19.70;99.90;;;;;;5115762;28;20048;-78
2023/09/11 02:32:45;;;;;;;0.90;0.60;;;19.70;99.90;;;;;;5115340;28;20044;-78
2023/09/11 02:35:10;;;;;;;0.40;0.40;;;19.70;99.90;;;;;;5115336;28;20173;-78
2023/09/11 02:37:36;;;;;;;0.83;0.47;;;19.60;99.90;;;;;;5115325;28;20032;-78
2023/09/11 02:40:02;;;;;;;0.80;0.70;;;19.60;99.90;;;;;;5115131;28;20046;-78
2023/09/11 02:42:28;;;;;;;0.20;0.20;;;19.60;99.90;;;;;;5115241;28;20044;-79
2023/09/11 02:44:53;;;;;;;0.60;0.60;;;19.60;99.90;;;;;;5113950;28;20038;-78
2023/09/11 02:47:19;;;;;;;1.70;0.80;;;19.50;99.90;;;;;;5115287;28;20406;-78
2023/09/11 02:49:45;;;;;;;1.10;0.73;;;19.50;99.90;;;;;;5115056;28;20042;-79
2023/09/11 02:52:10;;;;;;;0.40;0.40;;;19.60;99.90;;;;;;5114989;28;20032;-78
2023/09/11 02:54:36;;;;;;;1.10;1.00;;;19.50;99.90;;;;;;5115000;28;20112;-78
2023/09/11 02:57:01;;;;;;;0.50;0.50;;;19.50;99.90;;;;;;5114994;28;20417;-77
2023/09/11 02:59:27;;;;;;;0.63;0.63;;;19.50;99.90;;;;;;5114963;28;20040;-77
2023/09/11 03:01:53;;;;;;;0.30;0.30;;;19.50;99.90;;;;;;5115176;28;20032;-77
2023/09/11 03:04:18;;;;;;;0.40;0.40;;;19.40;99.90;;;;;;5114602;28;20459;-78
2023/09/11 03:06:44;;;;;;;0.80;0.80;;;19.40;99.90;;;;;;5114746;28;20131;-78
2023/09/11 03:09:09;;;;;;;0.40;0.40;;;19.40;99.90;;;;;;5114695;28;20047;-78
2023/09/11 03:11:35;;;;;;;1.67;0.80;;;19.40;99.90;;;;;;5115055;28;20073;-77
2023/09/11 03:14:01;;;;;;;0.60;0.60;;;19.40;99.90;;;;;;5114670;28;20042;-78
2023/09/11 03:16:26;;;;;;;0.50;0.50;;;19.30;99.90;;;;;;5114561;28;20074;-78
2023/09/11 03:18:52;;;;;;;1.27;0.70;;;19.30;99.90;;;;;;5114025;28;20044;-79
2023/09/11 03:21:18;;;;;;;0.83;0.83;;;19.30;99.90;;;;;;5114536;28;20031;-78
2023/09/11 03:23:43;;;;;;;0.47;0.47;;;19.30;99.90;;;;;;5114510;28;20483;-77
2023/09/11 03:26:16;;;;;;;1.80;0.53;;;19.30;99.90;;;;;;5114448;28;20141;-79
2023/09/11 03:28:47;;;;;;;0.55;0.55;;;19.20;99.90;;;;;;5114413;28;20040;-79
2023/09/11 03:31:12;;;;;;;0.40;0.40;;;19.20;99.90;;;;;;5114352;28;20123;-78
2023/09/11 03:33:38;;;;;;;0.80;0.70;;;19.20;99.90;;;;;;5114311;28;20122;-78
2023/09/11 03:36:04;;;;;;;0.50;0.50;;;19.20;99.90;;;;;;5114349;28;20098;-78
2023/09/11 03:38:29;;;;;;;0.40;0.40;;;19.10;99.90;;;;;;5114287;28;20050;-79
2023/09/11 03:40:56;;;;;;;0.40;0.40;;;19.20;99.90;;;;;;5114246;28;20084;-78
2023/09/11 03:43:21;;;;;;;0.60;0.60;;;19.10;99.90;;;;;;5113965;28;20118;-79
2023/09/11 03:45:48;;;;;;;0.77;0.77;;;19.10;99.90;;;;;;5114235;28;20071;-78
2023/09/11 03:48:14;;;;;;;0.30;0.30;;;19.10;99.90;;;;;;5114186;28;20055;-78
2023/09/11 03:50:39;;;;;;;0.73;0.50;;;19.00;99.90;;;;;;5114170;28;20039;-80
2023/09/11 03:53:05;;;;;;;0.50;0.50;;;19.00;99.90;;;;;;5114065;28;20472;-77
2023/09/11 03:55:31;;;;;;;0.60;0.60;;;19.00;99.90;;;;;;5114577;28;20040;-78
2023/09/11 03:57:57;;;;;;;0.50;0.30;;;19.00;99.90;;;;;;5114056;28;20042;-79
2023/09/11 04:00:23;;;;;;;0.47;0.47;;;18.90;99.90;;;;;;5114385;28;20040;-78
2023/09/11 04:02:48;;;;;;;0.63;0.63;;;18.90;99.90;;;;;;5114048;28;20032;-79
2023/09/11 04:05:14;;;;;;;0.37;0.37;;;18.90;99.90;;;;;;5113959;28;20050;-78
2023/09/11 04:07:40;;;;;;;0.40;0.40;;;18.90;99.90;;;;;;5114137;28;20044;-78
2023/09/11 04:10:06;;;;;;;1.90;0.80;;;18.90;99.90;;;;;;5114438;28;20130;-79
2023/09/11 04:12:32;;;;;;;0.40;0.40;;;18.90;99.90;;;;;;5113844;28;20039;-78
2023/09/11 04:14:58;;;;;;;1.60;0.60;;;18.80;99.90;;;;;;5113907;28;20421;-78
2023/09/11 04:17:23;;;;;;;0.90;0.70;;;18.80;99.90;;;;;;5114210;28;20390;-79
2023/09/11 04:19:49;;;;;;;0.90;0.73;;;18.80;99.90;;;;;;5113968;28;20078;-78
2023/09/11 04:22:14;;;;;;;0.70;0.67;;;18.80;99.90;;;;;;5112536;28;20089;-78
2023/09/11 04:24:40;;;;;;;0.50;0.50;;;18.80;99.90;;;;;;5113971;28;20123;-79
2023/09/11 04:27:05;;;;;;;1.60;0.70;;;18.80;99.90;;;;;;5113852;28;20040;-78
2023/09/11 04:29:31;;;;;;;0.77;0.67;;;18.80;99.90;;;;;;5113974;28;20031;-78
2023/09/11 04:31:57;;;;;;;0.50;0.50;;;18.80;99.90;;;;;;5117277;28;20527;-79
2023/09/11 04:34:22;;;;;;;0.50;0.50;;;18.80;99.90;;;;;;5117682;28;20084;-78
2023/09/11 04:36:48;;;;;;;0.60;0.60;;;18.80;99.90;;;;;;5118154;28;20127;-78
2023/09/11 04:39:14;;;;;;;1.00;1.00;;;18.70;99.90;;;;;;5118086;28;20116;-78
2023/09/11 04:41:39;;;;;;;0.83;0.60;;;18.70;99.90;;;;;;5117494;28;20142;-78
2023/09/11 04:44:05;;;;;;;0.70;0.43;;;18.70;99.90;;;;;;5117785;28;20046;-78
2023/09/11 04:46:31;;;;;;;0.40;0.40;;;18.70;99.90;;;;;;5117528;28;20059;-80
2023/09/11 04:48:57;;;;;;;0.50;0.45;;;18.70;99.90;;;;;;5117556;28;20118;-79
2023/09/11 04:51:23;;;;;;;0.30;0.30;;;18.70;99.90;;;;;;5117303;28;20172;-78
2023/09/11 04:53:48;;;;;;;2.33;0.70;;;18.70;99.90;;;;;;5117283;28;20043;-78
2023/09/11 04:56:14;;;;;;;1.33;0.67;;;18.70;99.90;;;;;;5117293;28;20050;-81
2023/09/11 04:58:39;;;;;;;0.73;0.73;;;18.70;99.90;;;;;;5117233;28;20062;-79
2023/09/11 05:01:05;;;;;;;0.67;0.60;;;18.70;99.90;;;;;;5117051;28;20039;-79
2023/09/11 05:03:31;;;;;;;2.20;1.17;;;18.70;99.90;;;;;;5117340;28;20098;-78
2023/09/11 05:05:56;;;;;;;0.47;0.40;;;18.70;99.90;;;;;;5116888;28;20075;-78
2023/09/11 05:08:22;;;;;;;0.83;0.77;;;18.70;99.90;;;;;;5117648;28;20051;-79
2023/09/11 05:10:48;;;;;;;0.83;0.73;;;18.70;99.90;;;;;;5117376;28;20031;-78
2023/09/11 05:13:14;;;;;;;0.50;0.50;;;18.80;99.90;;;;;;5116871;28;20458;-78
2023/09/11 05:15:39;;;;;;;0.73;0.73;;;18.70;99.90;;;;;;5116833;27;20047;-79
2023/09/11 05:18:05;;;;;;;0.80;0.80;;;18.70;99.90;;;;;;5116670;28;20039;-77
2023/09/11 05:20:31;;;;;;;0.60;0.47;;;18.70;99.90;;;;;;5116839;28;20032;-79
2023/09/11 05:22:57;;;;;;;2.90;0.53;;;18.70;99.90;;;;;;5116978;28;20077;-77
2023/09/11 05:25:23;;;;;;;0.43;0.43;;;18.70;99.90;;;;;;5117206;28;20099;-80
2023/09/11 05:27:49;;;;;;;0.82;0.73;;;18.80;99.90;;;;;;5116650;28;20779;-76
2023/09/11 05:30:15;;;;;;;0.70;0.60;;;18.80;99.90;;;;;;5116601;28;20032;-77
2023/09/11 05:32:41;;;;;;;0.80;0.80;;;18.80;99.90;;;;;;5114665;28;20031;-76
2023/09/11 05:35:07;;;;;;;0.50;0.50;;;18.80;99.90;;;;;;5115397;28;20078;-82
2023/09/11 05:37:33;;;;;;;0.43;0.38;;;18.80;99.90;;;;;;5114962;28;20122;-83
2023/09/11 05:40:00;;;;;;;0.87;0.77;;;18.80;99.90;;;;;;5114614;28;20049;-83
2023/09/11 05:42:26;;;;;;;1.60;1.33;;;18.80;99.90;;;;;;5115285;28;20118;-79
2023/09/11 05:44:52;;;;;;;0.35;0.35;;;18.90;99.90;;;;;;5116210;28;20114;-78
2023/09/11 05:47:17;;;;;;;0.70;0.50;;;18.90;99.90;;;;;;5116360;28;20099;-78
2023/09/11 05:49:43;;;;;;;1.23;0.70;;;18.90;99.90;;;;;;5116310;28;20035;-79
2023/09/11 05:52:09;;;;;;;1.07;0.73;;;18.90;99.90;;;;;;5116649;28;20451;-79
2023/09/11 05:54:34;;;;;;;1.10;0.93;;;18.90;99.90;;;;;;5116169;28;20467;-78
2023/09/11 05:57:05;;;;;;;0.60;0.60;;;19.00;99.90;;;;;;5116067;28;20039;-78
2023/09/11 05:59:31;;;;;;;1.00;0.60;;;19.00;99.90;;;;;;5116226;28;20119;-79
2023/09/11 06:01:57;;;;;;;0.80;0.80;;;19.00;99.90;;;;;;5115982;28;20123;-79
2023/09/11 06:04:22;;;;;;;3.83;0.70;;;19.10;99.90;;;;;;5115981;28;20096;-79
2023/09/11 06:06:48;;;;;;;0.33;0.33;;;19.10;99.90;;;;;;5116013;28;20036;-79
2023/09/11 06:09:13;;;;;;;2.23;1.37;;;19.10;99.90;;;;;;5114375;28;20075;-79
2023/09/11 06:11:39;;;;;;;0.33;0.33;;;19.20;99.90;;;;;;5116105;28;20047;-79
2023/09/11 06:14:07;;;;;;;16.47;0.93;;;19.20;99.90;;;;;;5115720;28;20040;-79
2023/09/11 06:16:33;;;;;;;1.73;0.88;;;19.20;99.90;;;;;;5115697;28;20130;-79
2023/09/11 06:18:59;;;;;;;1.10;0.88;;;19.30;99.90;;;;;;5115656;28;20169;-79
2023/09/11 06:21:25;;;;;;;1.30;0.85;;;19.30;99.90;;;;;;5115675;28;20407;-79
2023/09/11 06:23:50;;;;;;;0.70;0.50;;;19.40;99.90;;;;;;5114360;28;20152;-79
2023/09/11 06:26:16;;;;;;;0.80;0.80;;;19.40;99.90;;;;;;5101569;28;20085;-79
2023/09/11 06:28:42;;;;;;;0.87;0.83;;;19.50;99.90;;;;;;5094931;28;20072;-79
2023/09/11 06:31:09;;;;;;;1.45;1.00;;;19.50;99.90;;;;;;5094664;28;20040;-79
2023/09/11 06:33:34;;;;;;;0.90;0.70;;;19.60;99.90;;;;;;5097712;28;20562;-79
2023/09/11 06:36:01;;;;;;;0.73;0.73;;;19.60;99.90;;;;;;5104449;28;20157;-79
2023/09/11 06:38:27;;;;;;;;;;;19.70;99.90;;;;;;5114637;28;20035;-79
2023/09/11 06:40:52;;;;;;;1.23;0.95;;;19.70;99.90;;;;;;5102783;28;19916;-79
2023/09/11 06:43:18;;;;;;;1.07;0.93;;;19.80;99.90;;;;;;5113180;28;20372;-79
2023/09/11 06:45:44;;;;;;;2.77;1.37;;;20.00;99.90;;;;;;5114865;28;20089;-82
2023/09/11 06:48:11;;;;;;;0.80;0.60;;;20.00;99.90;;;;;;5114583;28;20118;-78
2023/09/11 06:50:36;;;;;;;1.23;1.00;;;20.10;99.90;;;;;;5114784;28;20131;-78
2023/09/11 06:53:02;;;;;;;2.33;1.47;;;20.20;99.90;;;;;;5114336;28;20118;-79
2023/09/11 06:55:28;;;;;;;1.23;0.93;;;20.30;99.90;;;;;;5114825;28;20123;-78
2023/09/11 06:57:58;;;;;;;1.53;0.90;;;20.50;99.90;;;;;;5114643;28;20470;-81
2023/09/11 07:00:24;;;;;;;0.85;0.77;;;20.60;99.90;;;;;;5114673;28;20046;-79
2023/09/11 07:02:50;;;;;;;0.77;0.60;;;20.70;99.90;;;;;;5113455;28;20035;-80
2023/09/11 07:05:17;;;;;;;0.97;0.87;;;20.80;99.90;;;;;;5114464;28;20043;-80
2023/09/11 07:07:42;;;;;;;;;;;21.00;99.90;;;;;;5114730;28;20045;-80
2023/09/11 07:10:15;;;;;;;1.20;0.80;;;21.10;99.90;;;;;;5114504;28;19916;-80
2023/09/11 07:12:41;;;;;;;1.25;1.15;;;21.20;99.90;;;;;;5109379;28;20040;-82
2023/09/11 07:15:07;;;;;;;0.70;0.60;;;21.30;99.90;;;;;;5103939;28;20050;-81
2023/09/11 07:17:33;;;;;;;3.90;1.10;;;21.50;99.90;;;;;;5110739;28;20036;-79
2023/09/11 07:19:59;;;;;;;1.02;0.75;;;21.60;99.90;;;;;;5104365;28;20088;-81
2023/09/11 07:22:24;;;;;;;1.13;1.03;;;21.70;99.90;;;;;;5102522;28;20036;-83
2023/09/11 07:24:50;;;;;;;1.13;0.70;;;21.80;99.90;;;;;;5103024;28;20043;-84
2023/09/11 07:27:15;;;;;;;1.17;0.90;;;21.90;99.90;;;;;;5096416;28;20032;-83
2023/09/11 07:29:41;;;;;;;0.77;0.77;;;22.00;99.90;;;;;;5112803;28;20039;-83
2023/09/11 07:32:08;;;;;;;2.00;1.40;;;22.10;99.90;;;;;;5113570;28;20031;-84
2023/09/11 07:34:33;;;;;;;0.93;0.82;;;22.20;99.90;;;;;;5113257;28;20079;-84
2023/09/11 07:36:59;;;;;;;0.83;0.60;;;22.20;99.90;;;;;;5114365;27;20452;-84
2023/09/11 07:39:25;;;;;;;1.00;0.40;;;22.30;99.90;;;;;;5096162;28;20046;-83
2023/09/11 07:41:50;;;;;;;0.50;0.50;;;22.40;99.90;;;;;;5113007;28;20050;-83
2023/09/11 07:44:16;;;;;;;1.90;0.63;;;22.50;99.90;;;;;;5113879;28;20043;-83
2023/09/11 07:46:41;;;;;;;2.10;1.00;;;22.60;99.90;;;;;;5113050;28;20039;-82
2023/09/11 07:49:08;;;;;;;0.80;0.80;;;22.70;99.90;;;;;;5104375;28;20063;-83
2023/09/11 07:51:33;;;;;;;;;;;22.80;99.90;;;;;;5104033;28;20042;-84
2023/09/11 07:53:59;;;;;;;0.50;0.50;;;23.00;99.90;;;;;;5093514;28;20329;-83
2023/09/11 07:56:25;;;;;;;2.38;1.27;;;23.10;99.90;;;;;;5092687;28;20562;-82
2023/09/11 07:58:51;;;;;;;0.50;0.50;;;23.20;99.90;;;;;;5092464;28;20387;-83
2023/09/11 08:01:18;;;;;;;1.47;1.10;;;23.30;99.90;;;;;;5103655;28;20036;-82
2023/09/11 08:03:44;;;;;;;0.80;0.80;;;23.30;99.90;;;;;;5101319;28;20039;-82
2023/09/11 08:06:10;;;;;;;;;;;23.40;99.90;;;;;;5104637;28;20122;-84
2023/09/11 08:08:36;;;;;;;0.85;0.70;;;23.50;99.90;;;;;;5103471;28;19916;-82
2023/09/11 08:11:20;;;;;;;0.75;0.75;;;23.60;99.90;;;;;;5116823;28;20416;-84
2023/09/11 08:13:48;;;;;;;1.00;0.90;;;23.70;99.90;;;;;;5116411;28;20471;-84
2023/09/11 08:16:16;;;;;;;0.40;0.38;;;23.90;99.90;;;;;;5117703;28;20048;-84
2023/09/11 08:18:42;;;;;;;0.95;0.90;;;24.00;99.90;;;;;;5117763;28;20036;-84
2023/09/11 08:21:08;;;;;;;0.77;0.77;;;24.00;99.90;;;;;;5116697;28;20042;-84
2023/09/11 08:23:34;;;;;;;2.70;1.40;;;24.10;99.90;;;;;;5117917;28;20232;-84
2023/09/11 08:26:04;;;;;;;1.40;1.00;;;24.20;99.90;;;;;;5099850;28;20479;-84
2023/09/11 08:28:30;;;;;;;1.27;1.17;;;24.30;99.90;;;;;;5116335;28;20062;-84
2023/09/11 08:30:56;;;;;;;0.57;0.50;;;24.40;99.90;;;;;;5116642;28;20036;-84
2023/09/11 08:33:22;;;;;;;0.70;0.60;;;24.40;99.90;;;;;;5116445;28;20067;-84
2023/09/11 08:35:48;;;;;;;1.35;0.95;;;24.60;99.90;;;;;;5116318;28;20040;-85
2023/09/11 08:38:18;;;;;;;0.50;0.50;;;24.60;99.90;;;;;;5116380;28;20035;-84
2023/09/11 08:40:44;;;;;;;1.13;0.73;;;24.70;99.90;;;;;;5117535;28;20130;-84
2023/09/11 08:43:10;;;;;;;0.40;0.40;;;24.80;99.90;;;;;;5110497;28;20043;-84
2023/09/11 08:45:39;;;;;;;0.50;0.40;;;24.90;99.90;;;;;;5110216;28;20058;-84
2023/09/11 08:48:14;;;;;;;1.98;1.35;;;25.00;99.90;;;;;;5117749;28;20035;-84
2023/09/11 08:50:48;;;;;;;0.55;0.47;;;25.10;99.90;;;;;;5116238;28;20090;-85
2023/09/11 08:53:17;;;;;;;0.50;0.50;;;25.10;99.90;;;;;;5116082;28;20042;-83
2023/09/11 08:55:47;;;;;;;0.43;0.43;;;25.20;99.90;;;;;;5116791;28;20028;-84
2023/09/11 08:58:15;;;;;;;0.75;0.68;;;25.20;99.90;;;;;;5099203;28;20130;-84
2023/09/11 09:00:41;;;;;;;0.98;0.75;;;25.30;99.90;;;;;;5116565;28;20539;-83
2023/09/11 09:03:08;;;;;;;0.47;0.47;;;25.40;99.90;;;;;;5116998;28;20028;-83
2023/09/11 09:05:34;;;;;;;1.08;0.60;;;25.50;99.90;;;;;;5116809;28;20108;-84
2023/09/11 09:08:01;;;;;;;0.80;0.80;;;25.70;99.90;;;;;;5090600;28;20058;-84
2023/09/11 09:10:27;;;;;;;1.02;0.68;;;25.70;99.90;;;;;;5105592;28;20084;-84
2023/09/11 09:12:54;;;;;;;0.73;0.73;;;25.90;99.90;;;;;;5115549;28;20039;-84
2023/09/11 09:15:21;;;;;;;0.70;0.70;;;26.00;99.90;;;;;;5116333;28;20281;-84
2023/09/11 09:17:47;;;;;;;0.88;0.80;;;26.10;99.90;;;;;;5115156;28;20494;-84
2023/09/11 09:20:13;;;;;;;0.63;0.63;;;26.20;99.90;;;;;;5115802;28;20047;-83
2023/09/11 09:22:57;;;;;;;0.40;0.30;;;26.20;99.90;;;;;;5133007;27;20043;-83
2023/09/11 09:25:24;;;;;;;0.52;0.50;;;26.30;99.90;;;;;;5115437;28;20096;-84
2023/09/11 09:27:50;;;;;;;0.35;0.35;;;26.50;99.90;;;;;;5116718;27;20047;-85
2023/09/11 09:30:24;;;;;;;0.82;0.52;;;26.60;99.90;;;;;;5116393;28;20082;-84
2023/09/11 09:32:51;;;;;;;0.45;0.45;;;26.60;99.90;;;;;;5116587;28;20371;-83
2023/09/11 09:35:32;;;;;;;0.30;0.30;;;26.70;99.90;;;;;;5098251;28;20047;-82
2023/09/11 09:37:59;;;;;;;0.63;0.60;;;26.80;99.90;;;;;;5116471;27;20048;-84
2023/09/11 09:40:37;;;;;;;1.00;0.82;;;27.00;99.90;;;;;;5116312;28;20036;-84
2023/09/11 09:43:13;;;;;;;0.30;0.30;;;27.00;99.90;;;;;;5110208;28;20063;-83
2023/09/11 09:45:42;;;;;;;0.65;0.65;;;27.10;99.90;;;;;;5125578;27;20054;-83
2023/09/11 09:48:11;;;;;;;0.47;0.47;;;27.20;99.90;;;;;;5114802;28;20039;-84
2023/09/11 09:50:49;;;;;;;0.85;0.85;;;27.30;99.90;;;;;;5116348;28;20060;-82
2023/09/11 09:53:21;;;;;;;0.47;0.45;;;27.40;99.90;;;;;;5116225;28;20123;-83
2023/09/11 09:55:47;;;;;;;0.95;0.85;;;27.50;99.90;;;;;;5115136;28;20039;-83
2023/09/11 09:58:12;;;;;;;0.60;0.60;;;27.60;99.90;;;;;;5097650;28;20039;-84
2023/09/11 10:00:38;;;;;;;0.83;0.73;;;27.70;99.90;;;;;;5114867;28;20273;-83
2023/09/11 10:03:04;;;;;;;1.40;1.20;;;27.70;99.90;;;;;;5115882;28;20035;-81
2023/09/11 10:05:29;;;;;;;0.75;0.35;;;27.80;99.90;;;;;;5114733;28;20050;-79
2023/09/11 10:07:59;;;;;;;0.40;0.40;;;27.90;99.90;;;;;;5115574;28;20042;-81
2023/09/11 10:10:30;;;;;;;0.40;0.40;;;27.90;99.90;;;;;;5115675;28;20126;-80
2023/09/11 10:13:05;;;;;;;0.40;0.40;;;27.90;99.90;;;;;;5115175;28;20124;-79
2023/09/11 10:15:33;;;;;;;0.40;0.40;;;28.00;99.90;;;;;;5115643;28;20035;-80
2023/09/11 10:17:59;;;;;;;0.20;0.20;;;28.00;99.90;;;;;;5115655;28;20428;-82
2023/09/11 10:20:25;;;;;;;0.57;0.57;;;28.10;99.90;;;;;;5115654;28;20048;-85
2023/09/11 10:22:55;;;;;;;0.82;0.82;;;28.10;99.90;;;;;;5115629;28;20035;-82
2023/09/11 10:25:22;;;;;;;0.35;0.35;;;28.10;99.90;;;;;;5115447;28;20082;-81
2023/09/11 10:27:56;;;;;;;;;;;28.20;99.90;;;;;;5114605;28;20501;-81
2023/09/11 10:30:26;;;;;;;0.30;0.30;;;28.20;99.90;;;;;;5115394;28;19960;-81
2023/09/11 10:32:59;;;;;;;0.35;0.35;;;28.20;99.90;;;;;;5115216;28;20028;-81
2023/09/11 10:35:31;;;;;;;0.32;0.32;;;28.30;99.90;;;;;;5115325;28;20046;-79
2023/09/11 10:37:58;;;;;;;0.47;0.47;;;28.20;99.90;;;;;;5115049;28;20546;-76
2023/09/11 10:40:30;;;;;;;0.38;0.38;;;28.30;99.90;;;;;;5114970;28;20046;-78
2023/09/11 10:42:55;;;;;;;1.08;0.55;;;28.30;99.90;;;;;;5115063;28;20060;-78
2023/09/11 10:45:28;;;;;;;0.60;0.53;;;28.30;99.90;;;;;;5115101;28;20031;-76
2023/09/11 10:47:54;;;;;;;1.92;0.75;;;28.40;99.90;;;;;;5114201;28;20062;-78
2023/09/11 10:50:22;;;;;;;0.60;0.60;;;28.40;99.90;;;;;;5115110;28;20039;-79
2023/09/11 10:52:51;;;;;;;0.77;0.52;;;28.40;99.90;;;;;;5114669;28;20085;-76
2023/09/11 10:55:17;;;;;;;1.17;0.82;;;28.40;99.90;;;;;;5114631;28;21005;-75
2023/09/11 10:57:43;;;;;;;0.22;0.22;;;28.40;99.90;;;;;;5114885;28;20127;-72
2023/09/11 11:00:10;;;;;;;0.57;0.50;;;28.40;99.90;;;;;;5114721;28;20370;-74
2023/09/11 11:02:36;;;;;;;0.30;0.30;;;28.50;99.90;;;;;;5114588;28;20071;-77
2023/09/11 11:05:02;;;;;;;1.42;0.70;;;28.50;99.90;;;;;;5114505;28;20082;-76
2023/09/11 11:07:28;;;;;;;0.95;0.57;;;28.60;99.90;;;;;;5114268;28;20139;-75
2023/09/11 11:09:53;;;;;;;0.80;0.77;;;28.60;99.90;;;;;;5113943;28;20083;-76
2023/09/11 11:12:33;;;;;;;0.73;0.70;;;28.70;99.90;;;;;;5114584;28;20051;-76
2023/09/11 11:15:24;;;;;;;0.32;0.32;;;28.70;99.90;;;;;;5114696;28;20277;-77
2023/09/11 11:18:23;;;;;;;0.55;0.43;;;28.70;99.90;;;;;;5113241;28;20042;-75
2023/09/11 11:21:00;;;;;;;0.82;0.52;;;28.70;99.90;;;;;;5114704;28;20039;-76
2023/09/11 11:23:28;;;;;;;0.30;0.30;;;28.80;99.90;;;;;;5114389;28;20047;-82
2023/09/11 11:25:54;;;;;;;0.65;0.63;;;28.80;99.90;;;;;;5114440;28;20086;-79
2023/09/11 11:28:23;;;;;;;0.35;0.35;;;28.90;99.90;;;;;;5113951;28;20078;-82
2023/09/11 11:30:53;;;;;;;0.30;0.30;;;28.90;99.90;;;;;;5130192;27;20374;-83
2023/09/11 11:33:24;;;;;;;0.47;0.47;;;29.00;99.90;;;;;;5114230;28;20342;-82
2023/09/11 11:35:51;;;;;;;0.32;0.30;;;29.00;99.90;;;;;;5114005;28;20051;-81
2023/09/11 11:38:18;;;;;;;0.45;0.40;;;29.00;99.90;;;;;;5114135;28;20553;-75
2023/09/11 11:40:45;;;;;;;0.50;0.50;;;29.10;99.90;;;;;;5113907;28;20425;-81
2023/09/11 11:43:11;;;;;;;0.50;0.30;;;29.10;99.90;;;;;;5114243;28;20084;-82
2023/09/11 11:45:37;;;;;;;;;;;29.20;99.90;;;;;;5114648;28;20038;-78
2023/09/11 11:48:03;;;;;;;0.30;0.30;;;29.20;99.90;;;;;;5114524;28;20363;-78
2023/09/11 11:50:30;;;;;;;0.40;0.40;;;29.20;99.90;;;;;;5114055;28;20050;-79
2023/09/11 11:52:57;;;;;;;0.40;0.40;;;29.30;99.90;;;;;;5113071;28;20126;-79
2023/09/11 11:55:26;;;;;;;0.70;0.60;;;29.20;99.90;;;;;;5113136;28;20527;-79
2023/09/11 11:57:53;;;;;;;0.30;0.30;;;29.30;99.90;;;;;;5113631;28;20592;-79
2023/09/11 12:00:19;;;;;;;1.10;0.50;;;29.30;99.90;;;;;;5113081;28;20039;-79
2023/09/11 12:02:44;;;;;;;0.40;0.32;;;29.30;99.90;;;;;;5112181;28;20471;-79
2023/09/11 12:05:14;;;;;;;0.50;0.40;;;29.40;99.90;;;;;;5114267;28;20046;-79
2023/09/11 12:07:41;;;;;;;0.32;0.32;;;29.40;99.90;;;;;;5113813;28;20096;-79
2023/09/11 12:10:10;;;;;;;0.50;0.50;;;29.40;99.90;;;;;;5114119;28;20047;-79
2023/09/11 12:12:41;;;;;;;0.50;0.50;;;29.50;99.90;;;;;;5114022;28;20136;-79
2023/09/11 12:15:09;;;;;;;0.30;0.30;;;29.50;99.90;;;;;;5114406;28;20039;-79
2023/09/11 12:17:45;;;;;;;0.50;0.50;;;29.50;99.90;;;;;;5114092;28;20141;-79
2023/09/11 12:20:20;;;;;;;0.68;0.68;;;29.50;99.90;;;;;;5114042;28;20082;-79
2023/09/11 12:22:47;;;;;;;0.55;0.47;;;29.50;99.90;;;;;;5113932;28;20371;-79
2023/09/11 12:25:14;;;;;;;0.50;0.50;;;29.50;99.90;;;;;;5113892;28;20035;-80
2023/09/11 12:27:41;;;;;;;1.00;0.73;;;29.50;99.90;;;;;;5113715;28;20043;-79
2023/09/11 12:30:08;;;;;;;1.55;0.30;;;29.40;99.90;;;;;;5113707;28;20446;-79
2023/09/11 12:32:33;;;;;;;0.40;0.40;;;29.40;99.90;;;;;;5113959;28;20058;-79
2023/09/11 12:35:00;;;;;;;0.60;0.60;;;29.40;99.90;;;;;;5113810;28;20490;-80
2023/09/11 12:37:25;;;;;;;;;;;29.40;99.90;;;;;;5113938;28;20391;-80
2023/09/11 12:39:51;;;;;;;0.52;0.52;;;29.40;99.90;;;;;;5113881;28;19916;-79
2023/09/11 12:42:17;;;;;;;0.30;0.30;;;29.50;99.90;;;;;;5113801;28;20511;-79
2023/09/11 12:44:43;;;;;;;0.30;0.30;;;29.50;99.90;;;;;;5113417;28;20129;-79
2023/09/11 12:47:09;;;;;;;1.23;0.52;;;29.50;99.90;;;;;;5113820;28;20082;-79
2023/09/11 12:49:35;;;;;;;0.57;0.57;;;29.50;99.90;;;;;;5113702;28;20044;-80